createdAt,value
2022-08-23T00:00:21.401Z,1.08
2022-08-23T00:02:53.728Z,1.25
2022-08-23T00:05:25.607Z,1.27
2022-08-23T00:07:59.561Z,1.20
2022-08-23T00:10:33.731Z,1.42
2022-08-23T00:13:04.979Z,1.20
2022-08-23T00:15:36.232Z,1.38
2022-08-23T00:18:07.287Z,1.70
2022-08-23T00:20:38.759Z,1.25
2022-08-23T00:23:09.638Z,1.42
2022-08-23T00:25:44.222Z,1.27
2022-08-23T00:28:16.547Z,1.50
2022-08-23T00:30:47.599Z,1.42
2022-08-23T00:33:18.765Z,1.67
2022-08-23T00:35:49.941Z,1.42
2022-08-23T00:38:32.611Z,1.58
2022-08-23T00:41:08.973Z,1.00
2022-08-23T00:43:55.063Z,1.63
2022-08-23T00:46:51.441Z,1.10
2022-08-23T00:49:24.459Z,1.50
2022-08-23T00:52:02.155Z,0.90
2022-08-23T00:54:35.196Z,1.50
2022-08-23T00:57:19.533Z,1.30
2022-08-23T00:59:50.422Z,1.08
2022-08-23T01:02:22.430Z,0.80
2022-08-23T01:04:59.331Z,1.08
2022-08-23T01:10:13.279Z,1.10
2022-08-23T01:12:59.233Z,1.30
2022-08-23T01:15:36.487Z,1.20
2022-08-23T01:18:11.885Z,1.85
2022-08-23T01:20:49.375Z,1.75
2022-08-23T01:23:34.687Z,1.45
2022-08-23T01:26:06.353Z,1.98
2022-08-23T01:28:45.682Z,1.20
2022-08-23T01:31:18.904Z,1.58
2022-08-23T01:33:58.910Z,0.88
2022-08-23T01:36:30.971Z,1.58
2022-08-23T01:39:04.576Z,1.83
2022-08-23T01:41:39.055Z,1.63
2022-08-23T01:44:10.943Z,0.85
2022-08-23T01:46:41.918Z,1.38
2022-08-23T01:49:13.060Z,2.08
2022-08-23T01:51:45.591Z,1.10
2022-08-23T01:54:19.169Z,0.90
2022-08-23T01:56:51.740Z,2.10
2022-08-23T01:59:22.932Z,1.77
2022-08-23T02:01:57.590Z,1.90
2022-08-23T02:04:28.796Z,1.38
2022-08-23T02:07:00.033Z,2.15
2022-08-23T02:09:33.943Z,2.30
2022-08-23T02:12:07.852Z,2.22
2022-08-23T02:14:42.338Z,2.08
2022-08-23T02:17:22.454Z,2.05
2022-08-23T02:19:53.844Z,2.40
2022-08-23T02:22:24.983Z,1.27
2022-08-23T02:24:58.852Z,1.90
2022-08-23T02:27:29.966Z,1.55
2022-08-23T02:30:02.076Z,2.13
2022-08-23T02:32:34.147Z,2.40
2022-08-23T02:35:06.105Z,1.13
2022-08-23T02:37:39.009Z,0.95
2022-08-23T02:40:14.690Z,2.63
2022-08-23T02:42:46.070Z,1.10
2022-08-23T02:45:17.953Z,1.02
2022-08-23T02:47:51.978Z,2.63
2022-08-23T02:50:28.472Z,2.40
2022-08-23T02:53:00.828Z,1.60
2022-08-23T02:55:34.969Z,2.47
2022-08-23T02:58:06.732Z,2.50
2022-08-23T03:00:39.006Z,2.35
2022-08-23T03:03:10.198Z,1.63
2022-08-23T03:05:41.388Z,1.27
2022-08-23T03:08:12.524Z,2.58
2022-08-23T03:10:55.352Z,2.55
2022-08-23T03:13:26.763Z,1.45
2022-08-23T03:15:58.788Z,1.23
2022-08-23T03:18:29.746Z,1.10
2022-08-23T03:21:04.158Z,1.58
2022-08-23T03:23:35.633Z,1.33
2022-08-23T03:26:12.353Z,2.78
2022-08-23T03:28:45.300Z,1.08
2022-08-23T03:31:20.448Z,2.58
2022-08-23T03:34:01.895Z,1.70
2022-08-23T03:36:33.064Z,2.10
2022-08-23T03:39:04.281Z,1.42
2022-08-23T03:41:38.373Z,2.60
2022-08-23T03:44:09.616Z,1.15
2022-08-23T03:46:45.262Z,2.47
2022-08-23T03:49:16.289Z,2.38
2022-08-23T03:51:56.403Z,1.63
2022-08-23T03:54:27.667Z,1.92
2022-08-23T03:57:04.299Z,1.75
2022-08-23T03:59:40.624Z,2.30
2022-08-23T04:02:15.251Z,2.35
2022-08-23T04:04:47.262Z,2.00
2022-08-23T04:07:37.881Z,2.05
2022-08-23T04:10:15.248Z,1.20
2022-08-23T04:12:51.028Z,2.38
2022-08-23T04:15:23.288Z,1.88
2022-08-23T04:17:54.595Z,2.22
2022-08-23T04:20:27.935Z,1.15
2022-08-23T04:23:04.601Z,1.60
2022-08-23T04:25:43.865Z,1.05
2022-08-23T04:28:17.376Z,1.30
2022-08-23T04:30:48.453Z,1.23
2022-08-23T04:33:19.702Z,1.40
2022-08-23T04:35:52.481Z,2.47
2022-08-23T04:38:25.480Z,2.33
2022-08-23T04:41:15.137Z,0.95
2022-08-23T04:43:51.283Z,1.00
2022-08-23T04:46:22.985Z,1.73
2022-08-23T04:48:55.442Z,2.58
2022-08-23T04:51:26.649Z,1.10
2022-08-23T04:53:57.716Z,2.10
2022-08-23T04:56:51.700Z,2.08
2022-08-23T04:59:27.937Z,3.03
2022-08-23T05:01:58.831Z,1.40
2022-08-23T05:04:30.286Z,2.33
2022-08-23T05:07:01.603Z,2.72
2022-08-23T05:09:32.778Z,2.08
2022-08-23T05:12:03.626Z,2.08
2022-08-23T05:14:39.027Z,2.03
2022-08-23T05:17:10.165Z,2.22
2022-08-23T05:19:44.183Z,1.85
2022-08-23T05:22:18.234Z,2.05
2022-08-23T05:25:21.628Z,1.33
2022-08-23T05:27:54.346Z,1.65
2022-08-23T05:30:28.886Z,2.50
2022-08-23T05:33:02.016Z,1.97
2022-08-23T05:35:33.969Z,2.47
2022-08-23T05:38:04.859Z,1.75
2022-08-23T05:40:35.893Z,1.70
2022-08-23T05:43:13.853Z,1.95
2022-08-23T05:45:48.345Z,1.20
2022-08-23T05:48:19.947Z,1.67
2022-08-23T05:50:55.062Z,1.63
2022-08-23T05:53:26.361Z,2.30
2022-08-23T05:55:57.257Z,1.40
2022-08-23T05:58:28.983Z,1.02
2022-08-23T06:01:03.469Z,1.85
2022-08-23T06:03:35.267Z,1.40
2022-08-23T06:06:07.931Z,1.45
2022-08-23T06:08:42.120Z,1.60
2022-08-23T06:11:15.087Z,1.55
2022-08-23T06:13:50.714Z,1.45
2022-08-23T06:16:28.630Z,1.52
2022-08-23T06:19:03.133Z,1.33
2022-08-23T06:21:53.980Z,1.27
2022-08-23T06:24:31.630Z,1.95
2022-08-23T06:27:07.627Z,1.20
2022-08-23T06:29:38.892Z,1.42
2022-08-23T06:32:31.644Z,1.60
2022-08-23T06:42:01.504Z,1.35
2022-08-23T06:44:35.918Z,1.10
2022-08-23T06:49:58.771Z,0.90
2022-08-23T06:52:51.504Z,1.38
2022-08-23T06:55:41.833Z,1.30
2022-08-23T06:58:31.735Z,1.08
2022-08-23T07:01:51.351Z,1.08
2022-08-23T07:07:09.478Z,1.10
2022-08-23T07:09:44.368Z,1.00
2022-08-23T07:12:16.031Z,1.00
2022-08-23T07:14:48.270Z,1.00
2022-08-23T07:17:19.755Z,0.95
2022-08-23T07:19:52.113Z,0.77
2022-08-23T07:22:25.817Z,1.10
2022-08-23T07:24:57.804Z,0.88
2022-08-23T07:27:29.133Z,1.00
2022-08-23T07:30:07.771Z,1.10
2022-08-23T07:32:41.115Z,0.93
2022-08-23T07:35:25.191Z,1.02
2022-08-23T07:38:06.978Z,1.33
2022-08-23T07:40:40.849Z,1.10
2022-08-23T07:43:14.334Z,1.00
2022-08-23T07:45:47.338Z,1.20
2022-08-23T07:48:37.090Z,0.63
2022-08-23T07:51:18.486Z,0.90
2022-08-23T07:53:53.098Z,1.13
2022-08-23T07:56:26.138Z,3.53
2022-08-23T07:59:02.156Z,1.30
2022-08-23T08:01:44.891Z,0.60
2022-08-23T08:04:16.563Z,0.80
2022-08-23T08:07:16.966Z,0.90
2022-08-23T08:09:50.803Z,0.70
2022-08-23T08:12:23.180Z,0.55
2022-08-23T08:14:57.602Z,0.50
2022-08-23T08:17:35.583Z,0.73
2022-08-23T08:20:22.917Z,0.63
2022-08-23T08:23:29.991Z,0.60
2022-08-23T08:26:31.001Z,0.52
2022-08-23T08:29:02.056Z,0.55
2022-08-23T08:31:33.468Z,0.80
2022-08-23T08:34:04.634Z,0.35
2022-08-23T08:36:39.485Z,0.50
2022-08-23T08:39:17.144Z,0.52
2022-08-23T08:42:05.387Z,0.50
2022-08-23T08:44:46.300Z,0.47
2022-08-23T08:47:27.763Z,0.50
2022-08-23T08:50:04.112Z,0.57
2022-08-23T08:52:42.167Z,0.80
2022-08-23T08:55:25.723Z,0.50
2022-08-23T08:58:01.557Z,0.70
2022-08-23T09:00:36.306Z,0.40
2022-08-23T09:03:14.568Z,0.57
2022-08-23T09:05:57.295Z,0.40
2022-08-23T09:08:45.877Z,0.55
2022-08-23T09:11:26.466Z,0.50
2022-08-23T09:14:18.524Z,0.45
2022-08-23T09:16:56.061Z,0.35
2022-08-23T09:19:28.340Z,0.40
2022-08-23T09:22:02.979Z,0.52
2022-08-23T09:24:36.286Z,0.47
2022-08-23T09:27:15.220Z,0.35
2022-08-23T09:30:04.466Z,0.50
2022-08-23T09:32:38.197Z,0.60
2022-08-23T09:35:21.379Z,0.57
2022-08-23T09:38:08.958Z,0.68
2022-08-23T09:40:54.759Z,0.93
2022-08-23T09:43:28.266Z,0.50
2022-08-23T09:46:08.571Z,0.70
2022-08-23T09:48:48.383Z,0.40
2022-08-23T09:51:29.810Z,0.63
2022-08-23T09:54:16.820Z,0.43
2022-08-23T09:57:04.324Z,0.70
2022-08-23T09:59:52.005Z,0.70
2022-08-23T10:02:37.915Z,0.50
2022-08-23T10:05:30.279Z,0.60
2022-08-23T10:08:11.035Z,0.32
2022-08-23T10:10:52.080Z,0.50
2022-08-23T10:13:41.106Z,0.60
2022-08-23T10:16:21.860Z,0.50
2022-08-23T10:19:18.779Z,0.60
2022-08-23T10:21:57.931Z,0.50
2022-08-23T10:24:46.846Z,0.68
2022-08-23T10:27:45.733Z,0.50
2022-08-23T10:30:20.152Z,0.40
2022-08-23T10:33:05.924Z,0.40
2022-08-23T10:35:52.992Z,0.40
2022-08-23T10:38:39.296Z,0.40
2022-08-23T10:41:25.508Z,0.30
2022-08-23T10:44:12.867Z,0.30
2022-08-23T10:46:54.058Z,0.40
2022-08-23T10:49:27.738Z,0.40
2022-08-23T10:52:03.556Z,0.63
2022-08-23T10:54:47.152Z,0.50
2022-08-23T10:57:25.075Z,0.40
2022-08-23T11:00:11.988Z,0.45
2022-08-23T11:02:50.958Z,0.47
2022-08-23T11:05:31.251Z,0.55
2022-08-23T11:08:11.357Z,0.50
2022-08-23T11:10:56.134Z,0.30
2022-08-23T11:13:36.331Z,0.40
2022-08-23T11:16:17.544Z,0.60
2022-08-23T11:18:51.397Z,0.40
2022-08-23T11:21:52.231Z,0.30
2022-08-23T11:24:55.601Z,0.65
2022-08-23T11:27:31.769Z,0.50
2022-08-23T11:30:46.701Z,0.50
2022-08-23T11:33:26.806Z,0.47
2022-08-23T11:36:21.786Z,0.52
2022-08-23T11:39:13.219Z,0.60
2022-08-23T11:44:44.606Z,0.30
2022-08-23T11:47:18.240Z,0.25
2022-08-23T11:50:15.224Z,0.30
2022-08-23T11:53:01.977Z,0.63
2022-08-23T11:56:14.837Z,0.57
2022-08-23T11:59:08.571Z,0.40
2022-08-23T12:01:44.170Z,0.40
2022-08-23T12:04:32.740Z,0.35
2022-08-23T12:07:12.854Z,0.22
2022-08-23T12:09:56.575Z,0.43
2022-08-23T12:12:36.012Z,0.20
2022-08-23T12:15:15.053Z,0.30
2022-08-23T12:18:14.876Z,0.15
2022-08-23T12:20:48.903Z,0.30
2022-08-23T12:23:23.979Z,0.40
2022-08-23T12:26:10.509Z,0.15
2022-08-23T12:28:49.506Z,0.10
2022-08-23T12:31:30.502Z,0.30
2022-08-23T12:38:10.149Z,0.20
2022-08-23T12:40:47.999Z,0.20
2022-08-23T12:43:23.126Z,0.20
2022-08-23T12:45:56.835Z,0.50
2022-08-23T12:48:33.160Z,0.50
2022-08-23T12:51:06.922Z,0.20
2022-08-23T12:53:45.886Z,0.20
2022-08-23T12:56:31.676Z,0.10
2022-08-23T12:59:07.849Z,0.35
2022-08-23T13:01:48.900Z,0.22
2022-08-23T13:04:22.620Z,0.25
2022-08-23T13:07:01.812Z,0.38
2022-08-23T13:09:37.201Z,0.20
2022-08-23T13:12:10.619Z,0.20
2022-08-23T13:14:48.370Z,0.20
2022-08-23T13:17:23.513Z,0.20
2022-08-23T13:20:13.838Z,0.28
2022-08-23T13:23:04.108Z,0.95
2022-08-23T13:25:38.778Z,0.20
2022-08-23T13:28:24.072Z,0.20
2022-08-23T13:31:03.956Z,0.20
2022-08-23T13:33:35.157Z,0.10
2022-08-23T13:36:18.198Z,0.20
2022-08-23T13:38:52.860Z,0.10
2022-08-23T13:41:38.566Z,0.15
2022-08-23T13:44:15.641Z,0.20
2022-08-23T13:46:51.377Z,0.20
2022-08-23T13:49:27.630Z,0.40
2022-08-23T13:52:50.555Z,0.15
2022-08-23T13:55:04.477Z,0.25
2022-08-23T13:57:37.525Z,0.28
2022-08-23T14:00:14.365Z,0.20
2022-08-23T14:02:49.354Z,0.20
2022-08-23T14:05:23.551Z,0.20
2022-08-23T14:07:57.904Z,0.20
2022-08-23T14:10:29.359Z,0.32
2022-08-23T14:13:02.417Z,0.20
2022-08-23T14:18:25.266Z,0.25
2022-08-23T14:20:56.801Z,0.30
2022-08-23T14:23:30.707Z,0.22
2022-08-23T14:26:03.204Z,0.40
2022-08-23T14:28:34.408Z,0.22
2022-08-23T14:31:05.754Z,0.20
2022-08-23T14:33:37.012Z,0.20
2022-08-23T14:36:09.125Z,0.40
2022-08-23T14:38:43.717Z,0.20
2022-08-23T14:41:22.712Z,0.20
2022-08-23T14:43:54.727Z,0.38
2022-08-23T14:46:26.788Z,0.20
2022-08-23T14:48:57.869Z,0.20
2022-08-23T14:51:35.394Z,0.20
2022-08-23T14:54:10.607Z,0.10
2022-08-23T14:56:41.764Z,0.20
2022-08-23T14:59:13.067Z,0.30
2022-08-23T15:01:44.535Z,0.40
2022-08-23T15:04:20.978Z,0.30
2022-08-23T15:07:16.725Z,0.30
2022-08-23T15:09:47.160Z,0.15
2022-08-23T15:15:30.495Z,0.40
2022-08-23T15:18:04.222Z,0.30
2022-08-23T15:20:37.946Z,0.20
2022-08-23T15:23:11.152Z,0.20
2022-08-23T15:25:46.634Z,0.20
2022-08-23T15:28:19.725Z,0.10
2022-08-23T15:30:52.018Z,0.20
2022-08-23T15:33:26.995Z,0.20
2022-08-23T15:36:03.411Z,1.45
2022-08-23T15:38:36.118Z,0.40
2022-08-23T15:41:10.619Z,0.30
2022-08-23T15:43:42.546Z,0.10
2022-08-23T15:46:20.299Z,0.47
2022-08-23T15:48:56.328Z,0.30
2022-08-23T15:51:27.942Z,0.83
2022-08-23T15:53:59.959Z,0.30
2022-08-23T15:56:38.395Z,0.28
2022-08-23T15:59:11.719Z,0.40
2022-08-23T16:01:43.475Z,0.35
2022-08-23T16:04:14.905Z,0.20
2022-08-23T16:06:46.180Z,0.30
2022-08-23T16:09:23.971Z,0.10
2022-08-23T16:12:00.239Z,0.10
2022-08-23T16:14:32.730Z,0.20
2022-08-23T16:17:04.373Z,0.20
2022-08-23T16:19:36.059Z,0.20
2022-08-23T16:22:07.416Z,0.20
2022-08-23T16:24:38.587Z,0.30
2022-08-23T16:27:12.941Z,0.30
2022-08-23T16:29:43.974Z,0.50
2022-08-23T16:32:15.079Z,0.30
2022-08-23T16:34:46.432Z,0.20
2022-08-23T16:37:17.633Z,0.32
2022-08-23T16:39:48.775Z,0.80
2022-08-23T16:42:22.613Z,0.30
2022-08-23T16:44:53.745Z,0.60
2022-08-23T16:47:25.219Z,0.40
2022-08-23T16:49:56.374Z,0.22
2022-08-23T16:52:34.541Z,0.32
2022-08-23T16:55:06.847Z,0.30
2022-08-23T16:57:41.211Z,0.40
2022-08-23T17:00:15.791Z,0.50
2022-08-23T17:02:47.368Z,0.25
2022-08-23T17:05:21.743Z,0.32
2022-08-23T17:07:54.605Z,0.30
2022-08-23T17:10:26.448Z,0.20
2022-08-23T17:13:00.830Z,0.30
2022-08-23T17:15:35.225Z,0.20
2022-08-23T17:18:06.891Z,0.20
2022-08-23T17:20:40.145Z,0.47
2022-08-23T17:23:11.828Z,0.40
2022-08-23T17:25:47.940Z,0.32
2022-08-23T17:28:22.033Z,0.38
2022-08-23T17:30:53.198Z,0.30
2022-08-23T17:33:26.377Z,0.30
2022-08-23T17:35:57.553Z,0.28
2022-08-23T17:38:28.714Z,0.25
2022-08-23T17:40:59.872Z,0.30
2022-08-23T17:43:34.468Z,0.20
2022-08-23T17:46:05.765Z,0.20
2022-08-23T17:48:37.044Z,0.30
2022-08-23T17:51:08.155Z,0.40
2022-08-23T17:53:39.151Z,0.30
2022-08-23T17:56:12.269Z,0.30
2022-08-23T17:58:47.102Z,0.60
2022-08-23T18:01:18.226Z,0.30
2022-08-23T18:03:49.295Z,0.25
2022-08-23T18:06:20.972Z,0.30
2022-08-23T18:08:51.962Z,0.40
2022-08-23T18:11:23.209Z,0.40
2022-08-23T18:13:56.885Z,0.45
2022-08-23T18:16:34.978Z,0.40
2022-08-23T18:19:11.209Z,0.40
2022-08-23T18:21:45.020Z,0.38
2022-08-23T18:24:17.178Z,0.45
2022-08-23T18:27:00.948Z,0.60
2022-08-23T18:29:36.399Z,0.40
2022-08-23T18:32:08.884Z,0.40
2022-08-23T18:34:42.455Z,0.52
2022-08-23T18:37:17.402Z,0.60
2022-08-23T18:39:48.487Z,0.30
2022-08-23T18:42:20.393Z,0.60
2022-08-23T18:44:54.500Z,0.57
2022-08-23T18:47:26.730Z,0.90
2022-08-23T18:49:57.920Z,0.60
2022-08-23T18:52:30.990Z,0.50
2022-08-23T18:55:03.190Z,0.30
2022-08-23T18:57:34.495Z,0.20
2022-08-23T19:00:11.178Z,0.60
2022-08-23T19:02:42.523Z,0.38
2022-08-23T19:05:14.160Z,0.50
2022-08-23T19:07:45.322Z,0.50
2022-08-23T19:10:20.273Z,0.55
2022-08-23T19:12:54.330Z,0.65
2022-08-23T19:15:30.039Z,0.55
2022-08-23T19:18:01.605Z,0.50
2022-08-23T19:20:33.446Z,0.47
2022-08-23T19:23:05.037Z,0.73
2022-08-23T19:25:38.799Z,0.60
2022-08-23T19:28:10.281Z,0.57
2022-08-23T19:30:47.430Z,0.63
2022-08-23T19:33:18.985Z,0.60
2022-08-23T19:35:50.498Z,0.60
2022-08-23T19:38:22.569Z,0.60
2022-08-23T19:40:54.325Z,0.52
2022-08-23T19:43:26.114Z,0.70
2022-08-23T19:46:02.265Z,0.50
2022-08-23T19:48:33.936Z,0.40
2022-08-23T19:51:05.915Z,0.60
2022-08-23T19:53:37.470Z,0.60
2022-08-23T19:56:17.637Z,0.60
2022-08-23T19:58:49.969Z,0.55
2022-08-23T20:01:24.271Z,0.60
2022-08-23T20:03:56.006Z,0.70
2022-08-23T20:06:27.934Z,0.52
2022-08-23T20:09:00.947Z,0.50
2022-08-23T20:11:32.543Z,0.40
2022-08-23T20:14:05.429Z,0.50
2022-08-23T20:16:42.747Z,1.27
2022-08-23T20:19:14.819Z,0.50
2022-08-23T20:21:47.590Z,0.50
2022-08-23T20:24:28.821Z,0.60
2022-08-23T20:27:11.898Z,0.60
2022-08-23T20:29:57.419Z,0.60
2022-08-23T20:32:34.954Z,0.95
2022-08-23T20:35:10.349Z,0.80
2022-08-23T20:37:42.413Z,0.52
2022-08-23T20:40:15.352Z,0.52
2022-08-23T20:42:47.066Z,0.75
2022-08-23T20:45:19.086Z,0.50
2022-08-23T20:47:54.725Z,0.55
2022-08-23T20:50:26.939Z,0.57
2022-08-23T20:53:00.298Z,0.43
2022-08-23T20:55:32.115Z,0.50
2022-08-23T20:58:03.899Z,0.40
2022-08-23T21:00:35.812Z,0.55
2022-08-23T21:03:09.802Z,0.60
2022-08-23T21:05:41.632Z,0.60
2022-08-23T21:08:13.426Z,0.60
2022-08-23T21:10:45.487Z,0.65
2022-08-23T21:13:16.852Z,0.60
2022-08-23T21:15:48.061Z,0.40
2022-08-23T21:18:21.928Z,0.68
2022-08-23T21:20:53.061Z,0.50
2022-08-23T21:23:25.215Z,0.50
2022-08-23T21:25:57.241Z,0.50
2022-08-23T21:28:29.561Z,0.40
2022-08-23T21:31:08.736Z,0.50
2022-08-23T21:33:43.069Z,0.70
2022-08-23T21:36:15.106Z,0.50
2022-08-23T21:38:46.698Z,0.30
2022-08-23T21:41:35.992Z,0.30
2022-08-23T21:44:10.115Z,0.60
2022-08-23T21:46:41.607Z,0.43
2022-08-23T21:49:16.334Z,0.65
2022-08-23T21:51:49.066Z,0.52
2022-08-23T21:54:20.839Z,0.40
2022-08-23T21:56:52.155Z,0.50
2022-08-23T21:59:23.754Z,0.50
2022-08-23T22:01:55.056Z,0.57
2022-08-23T22:04:30.624Z,0.50
2022-08-23T22:07:04.807Z,0.50
2022-08-23T22:09:35.897Z,0.75
2022-08-23T22:12:09.123Z,0.60
2022-08-23T22:14:40.286Z,0.70
2022-08-23T22:17:11.410Z,0.47
2022-08-23T22:19:45.164Z,0.50
2022-08-23T22:22:16.303Z,0.90
2022-08-23T22:24:47.405Z,0.77
2022-08-23T22:27:18.932Z,0.63
2022-08-23T22:29:50.152Z,0.40
2022-08-23T22:32:21.444Z,0.50
2022-08-23T22:34:55.167Z,0.60
2022-08-23T22:37:26.354Z,0.70
2022-08-23T22:39:59.469Z,0.50
2022-08-23T22:42:30.699Z,0.40
2022-08-23T22:45:01.852Z,0.52
2022-08-23T22:47:33.777Z,0.70
2022-08-23T22:50:08.106Z,0.95
2022-08-23T22:52:39.418Z,0.80
2022-08-23T22:55:11.617Z,0.50
2022-08-23T22:57:42.838Z,0.60
2022-08-23T23:00:16.439Z,1.15
2022-08-23T23:02:47.555Z,0.85
2022-08-23T23:05:21.259Z,0.90
2022-08-23T23:08:04.589Z,0.63
2022-08-23T23:10:35.608Z,0.50
2022-08-23T23:13:06.886Z,0.68
2022-08-23T23:15:37.955Z,0.70
2022-08-23T23:18:09.124Z,0.73
2022-08-23T23:20:41.157Z,0.90
2022-08-23T23:23:15.053Z,0.50
2022-08-23T23:25:47.266Z,0.70
2022-08-23T23:28:20.075Z,0.43
2022-08-23T23:30:53.738Z,0.50
2022-08-23T23:33:26.302Z,0.82
2022-08-23T23:36:00.152Z,0.70
2022-08-23T23:38:31.237Z,0.50
2022-08-23T23:41:02.366Z,0.60
2022-08-23T23:43:33.465Z,0.57
2022-08-23T23:46:10.338Z,0.50
2022-08-23T23:51:17.505Z,0.70
2022-08-23T23:53:48.739Z,0.88
2022-08-23T23:56:21.661Z,1.25
2022-08-23T23:58:54.496Z,0.60
